Time;durP1;ratioP1;P1;durP2;ratioP2;P2;SDS_P1;SDS_P2;PMS_P1;PMS_P2;Temp;Humidity;BMP_temperature;BMP_pressure;BME280_temperature;BME280_humidity;BME280_pressure;Samples;Min_cycle;Max_cycle;Signal;HPM_P1;HPM_P2
2022/04/12 00:00:36;;;;;;;;;;;12.10;70.10;;;;;;5012665;28;19910;-67
2022/04/12 00:03:02;;;;;;;;;;;12.10;70.10;;;;;;5012370;28;20017;-67
2022/04/12 00:05:27;;;;;;;;;;;12.10;70.10;;;;;;5012242;28;20390;-67
2022/04/12 00:07:53;;;;;;;;;;;12.00;70.20;;;;;;5012188;28;20017;-67
2022/04/12 00:10:18;;;;;;;;;;;12.00;70.40;;;;;;5012195;28;20370;-68
2022/04/12 00:12:44;;;;;;;;;;;12.10;70.20;;;;;;5016234;28;20388;-68
2022/04/12 00:15:10;;;;;;;;;;;12.00;70.60;;;;;;5016054;28;19963;-67
2022/04/12 00:20:21;;;;;;;;;;;12.00;70.80;;;;;;5016210;28;19967;-68
2022/04/12 00:22:46;;;;;;;;;;;12.00;70.70;;;;;;5016073;28;19914;-68
2022/04/12 00:25:12;;;;;;;;;;;12.00;70.60;;;;;;5015828;28;20008;-66
2022/04/12 00:27:42;;;;;;;;;;;12.00;70.50;;;;;;5015940;28;19916;-67
2022/04/12 00:30:09;;;;;;;;;;;12.00;70.80;;;;;;4998030;28;19910;-68
2022/04/12 00:32:35;;;;;;;;;;;12.00;70.90;;;;;;5016072;28;19928;-67
2022/04/12 00:35:01;;;;;;;;;;;12.00;70.80;;;;;;5015938;28;19909;-67
2022/04/12 00:37:26;;;;;;;;;;;11.90;70.50;;;;;;5015334;28;19916;-67
2022/04/12 00:39:52;;;;;;;;;;;11.80;70.90;;;;;;5015246;28;19960;-67
2022/04/12 00:42:18;;;;;;;;;;;11.90;71.40;;;;;;5015762;28;19916;-67
2022/04/12 00:44:43;;;;;;;;;;;11.90;70.80;;;;;;5015747;28;20350;-67
2022/04/12 00:47:09;;;;;;;;;;;11.80;71.10;;;;;;5015620;28;19997;-67
2022/04/12 00:49:34;;;;;;;;;;;11.80;71.00;;;;;;5015351;28;19909;-66
2022/04/12 00:52:00;;;;;;;;;;;11.90;71.00;;;;;;5015569;28;20359;-67
2022/04/12 00:54:26;;;;;;;;;;;11.80;70.90;;;;;;5015523;28;20402;-67
2022/04/12 00:56:52;;;;;;;;;;;11.90;71.00;;;;;;5015589;28;20384;-67
2022/04/12 00:59:18;;;;;;;;;;;12.00;70.80;;;;;;5015177;28;19910;-67
2022/04/12 01:01:43;;;;;;;;;;;12.00;70.70;;;;;;5015715;28;19910;-68
2022/04/12 01:04:09;;;;;;;;;;;11.90;70.40;;;;;;5015244;28;19913;-67
2022/04/12 01:06:35;;;;;;;;;;;11.90;70.40;;;;;;5015268;28;19925;-66
2022/04/12 01:09:04;;;;;;;;;;;11.90;70.50;;;;;;5015108;28;19910;-67
2022/04/12 01:11:30;;;;;;;;;;;11.90;70.70;;;;;;5014980;28;19913;-67
2022/04/12 01:13:55;;;;;;;;;;;11.90;70.90;;;;;;5015180;28;19994;-66
2022/04/12 01:16:20;;;;;;;;;;;11.90;70.70;;;;;;5015043;28;19917;-68
2022/04/12 01:18:46;;;;;;;;;;;11.90;70.70;;;;;;5014817;28;20325;-68
2022/04/12 01:21:11;;;;;;;;;;;11.90;70.70;;;;;;5014744;28;19932;-67
2022/04/12 01:23:41;;;;;;;;;;;11.80;71.00;;;;;;5013721;28;20370;-67
2022/04/12 01:26:07;;;;;;;;;;;11.80;71.10;;;;;;5014756;28;20325;-68
2022/04/12 01:28:33;;;;;;;;;;;11.80;71.40;;;;;;5014771;28;19960;-66
2022/04/12 01:30:58;;;;;;;;;;;11.80;71.30;;;;;;5014467;28;19909;-69
2022/04/12 01:33:23;;;;;;;;;;;11.80;71.40;;;;;;5014557;28;19955;-69
2022/04/12 01:35:49;;;;;;;;;;;11.70;71.40;;;;;;5014124;28;19942;-68
2022/04/12 01:38:14;;;;;;;;;;;11.70;71.60;;;;;;5014821;28;19916;-67
2022/04/12 01:40:40;;;;;;;;;;;11.70;72.50;;;;;;5014375;28;19988;-65
2022/04/12 01:43:05;;;;;;;;;;;11.60;71.80;;;;;;5014325;28;19914;-66
2022/04/12 01:45:31;;;;;;;;;;;11.60;72.00;;;;;;5014547;28;19910;-66
2022/04/12 01:47:56;;;;;;;;;;;11.60;72.10;;;;;;5014377;28;20371;-64
2022/04/12 01:50:49;;;;;;;;;;;11.70;72.30;;;;;;5014727;28;19924;-65
2022/04/12 01:53:14;;;;;;;;;;;11.70;72.50;;;;;;4992533;28;19910;-66
2022/04/12 01:55:39;;;;;;;;;;;11.90;72.20;;;;;;4992256;28;19921;-66
2022/04/12 01:58:05;;;;;;;;;;;11.80;71.70;;;;;;4992307;28;19909;-66
2022/04/12 02:00:31;;;;;;;;;;;11.70;71.90;;;;;;4992424;28;19910;-66
2022/04/12 02:02:56;;;;;;;;;;;11.70;72.00;;;;;;4992149;28;19962;-67
2022/04/12 02:05:22;;;;;;;;;;;11.70;72.10;;;;;;4992172;28;20571;-68
2022/04/12 02:07:47;;;;;;;;;;;11.80;72.30;;;;;;4992269;28;19910;-66
2022/04/12 02:10:13;;;;;;;;;;;11.70;72.20;;;;;;4991863;28;20339;-67
2022/04/12 02:12:38;;;;;;;;;;;11.80;72.30;;;;;;4992087;28;20645;-67
2022/04/12 02:15:04;;;;;;;;;;;11.80;72.20;;;;;;4991786;28;19957;-66
2022/04/12 02:17:30;;;;;;;;;;;11.80;72.00;;;;;;4991693;28;20426;-66
2022/04/12 02:19:55;;;;;;;;;;;11.90;72.20;;;;;;4991664;28;20381;-66
2022/04/12 02:22:21;;;;;;;;;;;11.90;72.30;;;;;;4992001;28;20000;-66
2022/04/12 02:24:46;;;;;;;;;;;11.80;72.20;;;;;;4991950;28;20375;-67
2022/04/12 02:27:12;;;;;;;;;;;11.90;72.40;;;;;;4991639;28;19910;-66
2022/04/12 02:29:37;;;;;;;;;;;11.80;72.50;;;;;;4998853;28;19914;-66
2022/04/12 02:32:03;;;;;;;;;;;11.80;72.80;;;;;;5014046;28;19963;-66
2022/04/12 02:34:28;;;;;;;;;;;11.80;73.00;;;;;;5013655;28;20363;-68
2022/04/12 02:36:54;;;;;;;;;;;11.80;72.60;;;;;;5013145;28;19910;-67
2022/04/12 02:39:19;;;;;;;;;;;11.80;72.60;;;;;;5013105;28;19913;-66
2022/04/12 02:41:45;;;;;;;;;;;11.80;72.90;;;;;;5013641;28;19909;-66
2022/04/12 02:44:10;;;;;;;;;;;11.90;72.90;;;;;;5013337;28;20022;-65
2022/04/12 02:46:36;;;;;;;;;;;11.90;72.90;;;;;;5013614;28;20335;-68
2022/04/12 02:49:01;;;;;;;;;;;11.90;73.10;;;;;;5013398;28;20389;-67
2022/04/12 02:51:26;;;;;;;;;;;11.80;73.30;;;;;;5012911;28;19925;-66
2022/04/12 02:53:52;;;;;;;;;;;11.90;73.50;;;;;;5013297;28;19959;-67
2022/04/12 02:56:17;;;;;;;;;;;11.90;73.30;;;;;;5013355;28;19956;-66
2022/04/12 02:58:43;;;;;;;;;;;12.10;73.20;;;;;;5013135;28;20450;-65
2022/04/12 03:01:08;;;;;;;;;;;12.00;73.10;;;;;;5012711;28;19957;-67
2022/04/12 03:03:34;;;;;;;;;;;12.00;73.20;;;;;;5013299;28;20374;-66
2022/04/12 03:05:59;;;;;;;;;;;12.10;73.10;;;;;;5013365;28;20349;-67
2022/04/12 03:08:25;;;;;;;;;;;12.20;73.00;;;;;;5012986;28;19960;-65
2022/04/12 03:10:50;;;;;;;;;;;12.20;72.80;;;;;;5012503;28;19909;-66
2022/04/12 03:13:16;;;;;;;;;;;12.20;72.70;;;;;;5013062;28;20409;-67
2022/04/12 03:15:41;;;;;;;;;;;12.20;72.80;;;;;;5012994;28;19925;-66
2022/04/12 03:18:06;;;;;;;;;;;12.20;72.80;;;;;;5038440;22;19925;-69
2022/04/12 03:20:32;;;;;;;;;;;12.30;72.70;;;;;;5043524;28;20475;-68
2022/04/12 03:22:58;;;;;;;;;;;12.30;72.80;;;;;;5032563;28;19921;-69
2022/04/12 03:25:24;;;;;;;;;;;12.20;73.40;;;;;;5032061;28;19931;-68
2022/04/12 03:27:49;;;;;;;;;;;12.20;72.80;;;;;;5032254;28;20374;-70
2022/04/12 03:30:14;;;;;;;;;;;12.20;73.00;;;;;;5031352;28;20357;-68
2022/04/12 03:32:40;;;;;;;;;;;12.30;73.00;;;;;;5032613;28;19910;-70
2022/04/12 03:35:06;;;;;;;;;;;12.20;73.10;;;;;;5032407;28;19913;-69
2022/04/12 03:37:31;;;;;;;;;;;12.30;73.20;;;;;;5031540;28;19909;-68
2022/04/12 03:39:56;;;;;;;;;;;12.20;73.10;;;;;;5031386;28;20004;-68
2022/04/12 03:42:22;;;;;;;;;;;12.20;73.00;;;;;;5032244;28;20171;-71
2022/04/12 03:44:48;;;;;;;;;;;12.20;73.30;;;;;;5047328;28;19913;-71
2022/04/12 03:47:13;;;;;;;;;;;12.20;73.40;;;;;;5031925;28;19909;-69
2022/04/12 03:49:39;;;;;;;;;;;12.30;73.50;;;;;;5031950;28;19951;-68
2022/04/12 03:52:05;;;;;;;;;;;12.30;73.40;;;;;;5032224;28;19916;-68
2022/04/12 03:54:30;;;;;;;;;;;12.30;73.20;;;;;;5031693;28;20394;-69
2022/04/12 03:56:56;;;;;;;;;;;12.30;73.10;;;;;;5032006;28;19948;-69
2022/04/12 03:59:21;;;;;;;;;;;12.20;73.10;;;;;;5031797;28;19917;-69
2022/04/12 04:01:47;;;;;;;;;;;12.30;73.10;;;;;;5032018;28;20289;-69
2022/04/12 04:04:12;;;;;;;;;;;12.30;73.00;;;;;;5031964;28;20051;-69
2022/04/12 04:06:38;;;;;;;;;;;12.30;73.20;;;;;;5031674;28;20012;-70
2022/04/12 04:09:03;;;;;;;;;;;12.30;73.50;;;;;;5031677;28;19932;-69
2022/04/12 04:11:29;;;;;;;;;;;12.20;73.60;;;;;;5031683;28;19916;-70
2022/04/12 04:13:55;;;;;;;;;;;12.20;73.60;;;;;;5031761;28;20588;-69
2022/04/12 04:16:21;;;;;;;;;;;12.20;73.70;;;;;;5031494;28;19909;-70
2022/04/12 04:18:46;;;;;;;;;;;12.20;74.00;;;;;;5031714;28;19925;-69
2022/04/12 04:21:12;;;;;;;;;;;12.20;74.10;;;;;;5031397;28;19916;-70
2022/04/12 04:23:37;;;;;;;;;;;12.20;74.20;;;;;;5031624;28;19913;-70
2022/04/12 04:26:02;;;;;;;;;;;12.20;74.30;;;;;;5031675;28;19956;-70
2022/04/12 04:28:30;;;;;;;;;;;12.20;74.50;;;;;;5031577;28;20432;-70
2022/04/12 04:30:55;;;;;;;;;;;12.20;74.70;;;;;;5031211;28;19956;-70
2022/04/12 04:33:21;;;;;;;;;;;12.20;74.90;;;;;;5031581;28;19909;-69
2022/04/12 04:35:47;;;;;;;;;;;12.20;75.00;;;;;;5031925;28;19909;-69
2022/04/12 04:38:13;;;;;;;;;;;12.20;75.20;;;;;;5046820;28;20395;-70
2022/04/12 04:40:38;;;;;;;;;;;12.30;75.40;;;;;;5031433;28;19952;-69
2022/04/12 04:43:05;;;;;;;;;;;12.20;75.60;;;;;;5031415;28;19913;-70
2022/04/12 04:45:31;;;;;;;;;;;12.20;75.80;;;;;;5031623;28;19916;-69
2022/04/12 04:47:57;;;;;;;;;;;12.10;76.30;;;;;;5031432;28;19910;-69
2022/04/12 04:50:27;;;;;;;;;;;12.20;76.70;;;;;;5031341;28;19920;-69
2022/04/12 04:52:53;;;;;;;;;;;12.20;77.00;;;;;;5031423;28;20003;-70
2022/04/12 04:55:18;;;;;;;;;;;12.20;77.50;;;;;;5030929;28;20719;-70
2022/04/12 04:57:44;;;;;;;;;;;12.20;77.60;;;;;;5052678;28;19912;-69
2022/04/12 05:00:17;;;;;;;;;;;12.20;77.80;;;;;;5052798;28;19913;-69
2022/04/12 05:02:46;;;;;;;;;;;12.20;78.00;;;;;;5054155;28;19975;-70
2022/04/12 05:05:12;;;;;;;;;;;12.20;78.20;;;;;;5053048;28;20345;-69
2022/04/12 05:07:38;;;;;;;;;;;12.20;78.50;;;;;;5049777;28;19913;-69
2022/04/12 05:10:04;;;;;;;;;;;12.20;78.80;;;;;;5051320;28;19917;-70
2022/04/12 05:12:29;;;;;;;;;;;12.20;78.90;;;;;;5053241;28;20324;-69
2022/04/12 05:14:55;;;;;;;;;;;12.20;79.00;;;;;;5053167;28;19962;-69
2022/04/12 05:17:25;;;;;;;;;;;12.20;79.00;;;;;;5052789;28;19986;-70
2022/04/12 05:19:51;;;;;;;;;;;12.20;79.30;;;;;;5052291;28;19962;-70
2022/04/12 05:22:16;;;;;;;;;;;12.20;79.70;;;;;;5051288;28;20008;-69
2022/04/12 05:24:42;;;;;;;;;;;12.20;79.80;;;;;;5051790;28;19916;-69
2022/04/12 05:27:07;;;;;;;;;;;12.20;79.80;;;;;;5052617;28;19915;-69
2022/04/12 05:29:33;;;;;;;;;;;12.20;80.00;;;;;;5052897;28;19935;-69
2022/04/12 05:31:58;;;;;;;;;;;12.20;80.30;;;;;;5052547;28;19913;-71
2022/04/12 05:34:23;;;;;;;;;;;12.20;80.30;;;;;;5052778;28;20027;-70
2022/04/12 05:36:49;;;;;;;;;;;12.20;80.30;;;;;;5052934;28;19916;-69
2022/04/12 05:39:14;;;;;;;;;;;12.20;80.30;;;;;;5052186;28;19909;-69
2022/04/12 05:41:40;;;;;;;;;;;12.30;80.50;;;;;;5051525;28;19917;-70
2022/04/12 05:44:05;;;;;;;;;;;12.20;80.40;;;;;;5052232;28;19923;-70
2022/04/12 05:46:31;;;;;;;;;;;12.20;80.60;;;;;;5052758;28;19916;-69
2022/04/12 05:48:56;;;;;;;;;;;12.20;80.40;;;;;;5052227;28;19963;-69
2022/04/12 05:51:21;;;;;;;;;;;12.20;80.60;;;;;;5052228;28;19913;-69
2022/04/12 05:53:47;;;;;;;;;;;12.30;80.50;;;;;;5052319;28;19909;-70
2022/04/12 05:56:12;;;;;;;;;;;12.30;80.20;;;;;;5051520;28;19909;-69
2022/04/12 05:58:40;;;;;;;;;;;12.30;80.20;;;;;;5052125;28;20012;-70
2022/04/12 06:01:06;;;;;;;;;;;12.20;80.10;;;;;;5051376;28;20429;-70
2022/04/12 06:03:31;;;;;;;;;;;12.20;80.40;;;;;;5052222;28;19999;-70
2022/04/12 06:05:57;;;;;;;;;;;12.20;80.20;;;;;;5052240;28;19916;-68
2022/04/12 06:08:22;;;;;;;;;;;12.20;80.10;;;;;;5051370;28;19940;-70
2022/04/12 06:10:47;;;;;;;;;;;12.20;79.90;;;;;;5058796;28;19962;-70
2022/04/12 06:13:13;;;;;;;;;;;12.30;79.90;;;;;;5071615;28;19962;-70
2022/04/12 06:15:39;;;;;;;;;;;12.30;79.50;;;;;;5054662;28;19982;-71
2022/04/12 06:18:04;;;;;;;;;;;12.40;79.50;;;;;;5051364;28;19966;-70
2022/04/12 06:20:30;;;;;;;;;;;12.40;78.90;;;;;;5051812;28;19913;-69
2022/04/12 06:22:55;;;;;;;;;;;12.40;79.30;;;;;;5051884;28;20002;-69
2022/04/12 06:25:21;;;;;;;;;;;12.50;78.90;;;;;;5050185;28;19909;-70
2022/04/12 06:27:50;;;;;;;;;;;12.60;78.80;;;;;;5051832;28;20377;-69
2022/04/12 06:30:21;;;;;;;;;;;12.60;78.50;;;;;;5049930;28;20274;-70
2022/04/12 06:32:46;;;;;;;;;;;12.70;78.30;;;;;;5051829;28;19954;-69
2022/04/12 06:35:12;;;;;;;;;;;12.70;78.20;;;;;;5051376;28;19916;-68
2022/04/12 06:37:41;;;;;;;;;;;12.80;77.50;;;;;;5051411;28;19971;-70
2022/04/12 06:40:08;;;;;;;;;;;12.80;77.50;;;;;;5052250;28;19913;-69
2022/04/12 06:42:34;;;;;;;;;;;12.80;77.60;;;;;;5071958;28;19912;-70
2022/04/12 06:44:59;;;;;;;;;;;12.90;77.50;;;;;;5071170;28;19909;-69
2022/04/12 06:47:25;;;;;;;;;;;13.00;77.20;;;;;;5071861;28;19908;-70
2022/04/12 06:49:51;;;;;;;;;;;13.00;77.40;;;;;;5071080;28;19916;-70
2022/04/12 06:52:17;;;;;;;;;;;13.00;77.50;;;;;;5070090;28;20268;-71
2022/04/12 06:54:43;;;;;;;;;;;13.00;76.90;;;;;;5070558;28;20335;-68
2022/04/12 06:57:08;;;;;;;;;;;13.10;76.70;;;;;;5070755;28;19909;-69
2022/04/12 06:59:34;;;;;;;;;;;13.20;76.50;;;;;;5070578;28;19909;-69
2022/04/12 07:02:01;;;;;;;;;;;13.30;76.90;;;;;;5070956;28;19909;-68
2022/04/12 07:04:27;;;;;;;;;;;13.20;76.40;;;;;;5070876;28;19912;-69
2022/04/12 07:06:52;;;;;;;;;;;13.30;76.50;;;;;;5071063;28;20292;-68
2022/04/12 07:09:20;;;;;;;;;;;13.30;76.20;;;;;;5069644;28;20362;-69
2022/04/12 07:11:46;;;;;;;;;;;13.40;76.40;;;;;;5070836;28;20282;-69
2022/04/12 07:14:12;;;;;;;;;;;13.40;76.20;;;;;;5065026;28;19921;-69
2022/04/12 07:16:37;;;;;;;;;;;13.50;76.30;;;;;;5051382;28;20293;-68
2022/04/12 07:19:02;;;;;;;;;;;13.50;76.10;;;;;;5051799;28;20477;-69
2022/04/12 07:21:29;;;;;;;;;;;13.60;76.30;;;;;;5051249;28;20400;-69
2022/04/12 07:23:55;;;;;;;;;;;13.60;76.10;;;;;;5052292;28;20273;-69
2022/04/12 07:26:20;;;;;;;;;;;13.70;76.10;;;;;;5052204;28;19920;-69
2022/04/12 07:28:46;;;;;;;;;;;13.80;76.10;;;;;;5051954;28;19913;-69
2022/04/12 07:31:11;;;;;;;;;;;13.90;76.20;;;;;;5050548;28;19973;-69
2022/04/12 07:33:36;;;;;;;;;;;13.90;76.10;;;;;;5052099;28;19958;-69
2022/04/12 07:36:02;;;;;;;;;;;14.00;76.00;;;;;;5052078;28;20341;-69
2022/04/12 07:38:27;;;;;;;;;;;14.10;75.60;;;;;;5051986;28;19999;-69
2022/04/12 07:40:53;;;;;;;;;;;14.20;75.50;;;;;;5051790;28;19934;-69
2022/04/12 07:43:19;;;;;;;;;;;14.30;75.30;;;;;;5050682;28;20317;-69
2022/04/12 07:45:44;;;;;;;;;;;14.40;75.10;;;;;;5052115;28;20334;-69
2022/04/12 07:48:10;;;;;;;;;;;14.50;75.20;;;;;;5052299;28;19962;-69
2022/04/12 07:50:35;;;;;;;;;;;14.50;75.00;;;;;;5051573;28;19991;-69
2022/04/12 07:53:00;;;;;;;;;;;14.60;74.90;;;;;;5052096;28;20263;-69
2022/04/12 07:55:26;;;;;;;;;;;14.70;74.70;;;;;;5052041;28;19963;-69
2022/04/12 07:57:51;;;;;;;;;;;14.80;74.70;;;;;;5052146;28;19909;-69
2022/04/12 08:00:17;;;;;;;;;;;14.80;74.70;;;;;;5051648;28;19909;-69
2022/04/12 08:02:42;;;;;;;;;;;14.90;74.70;;;;;;5051776;28;19914;-69
2022/04/12 08:05:08;;;;;;;;;;;15.10;74.30;;;;;;5051895;28;19909;-69
2022/04/12 08:07:33;;;;;;;;;;;15.20;73.80;;;;;;5052032;28;20023;-70
2022/04/12 08:09:59;;;;;;;;;;;15.20;73.70;;;;;;5051401;28;19909;-71
2022/04/12 08:12:24;;;;;;;;;;;15.20;73.60;;;;;;5051673;28;19923;-71
2022/04/12 08:14:50;;;;;;;;;;;15.30;73.70;;;;;;5051448;28;19916;-69
2022/04/12 08:17:15;;;;;;;;;;;15.50;73.40;;;;;;5051873;28;19909;-69
2022/04/12 08:19:41;;;;;;;;;;;15.60;73.40;;;;;;5051286;28;20378;-70
2022/04/12 08:22:08;;;;;;;;;;;15.70;73.10;;;;;;5051644;28;19913;-70
2022/04/12 08:24:33;;;;;;;;;;;15.80;72.60;;;;;;5051552;28;19929;-71
2022/04/12 08:26:59;;;;;;;;;;;16.00;72.70;;;;;;5051578;28;19908;-70
2022/04/12 08:29:24;;;;;;;;;;;16.00;71.60;;;;;;5049906;28;19920;-70
2022/04/12 08:31:49;;;;;;;;;;;16.10;71.20;;;;;;5053423;28;19909;-70
2022/04/12 08:34:15;;;;;;;;;;;16.20;71.20;;;;;;5055509;28;19909;-70
2022/04/12 08:36:41;;;;;;;;;;;16.30;71.10;;;;;;5055326;28;19909;-71
2022/04/12 08:39:06;;;;;;;;;;;16.50;70.20;;;;;;5055322;28;19909;-70
2022/04/12 08:41:31;;;;;;;;;;;16.50;70.40;;;;;;5055350;28;20068;-70
2022/04/12 08:43:58;;;;;;;;;;;16.60;70.30;;;;;;5055338;28;19920;-70
2022/04/12 08:46:27;;;;;;;;;;;16.70;70.40;;;;;;5055363;28;20417;-70
2022/04/12 08:48:56;;;;;;;;;;;16.80;70.10;;;;;;5055084;28;20329;-70
2022/04/12 08:51:22;;;;;;;;;;;17.00;69.20;;;;;;5054988;28;19937;-70
2022/04/12 08:53:48;;;;;;;;;;;17.00;69.20;;;;;;5055356;28;19916;-71
2022/04/12 08:56:14;;;;;;;;;;;17.10;69.00;;;;;;5055320;28;20369;-71
2022/04/12 08:58:39;;;;;;;;;;;17.30;68.50;;;;;;5055063;28;19966;-71
2022/04/12 09:01:05;;;;;;;;;;;17.30;68.40;;;;;;5054889;28;20373;-70
2022/04/12 09:03:30;;;;;;;;;;;17.50;67.90;;;;;;5055095;28;19924;-70
2022/04/12 09:05:56;;;;;;;;;;;17.40;67.50;;;;;;5054909;28;19916;-71
2022/04/12 09:08:24;;;;;;;;;;;17.50;67.80;;;;;;5055196;28;20008;-70
2022/04/12 09:10:55;;;;;;;;;;;17.60;67.30;;;;;;5054774;28;20302;-70
2022/04/12 09:13:20;;;;;;;;;;;17.60;67.60;;;;;;5054678;28;19909;-71
2022/04/12 09:15:46;;;;;;;;;;;17.60;67.80;;;;;;5054499;28;20003;-70
2022/04/12 09:18:11;;;;;;;;;;;17.70;67.80;;;;;;5055050;28;19909;-70
2022/04/12 09:20:37;;;;;;;;;;;17.80;67.10;;;;;;5054249;28;19941;-71
2022/04/12 09:23:13;;;;;;;;;;;17.80;66.80;;;;;;5054786;28;19967;-71
2022/04/12 09:25:51;;;;;;;;;;;17.80;67.40;;;;;;5054660;28;19916;-71
2022/04/12 09:28:16;;;;;;;;;;;18.00;67.40;;;;;;5054582;28;19909;-71
2022/04/12 09:30:42;;;;;;;;;;;17.90;67.00;;;;;;5054358;28;19912;-71
2022/04/12 09:33:07;;;;;;;;;;;18.00;67.20;;;;;;5054832;28;20282;-72
2022/04/12 09:35:42;;;;;;;;;;;18.00;67.00;;;;;;5054395;28;20289;-68
2022/04/12 09:38:09;;;;;;;;;;;18.20;67.10;;;;;;5054419;28;19916;-70
2022/04/12 09:40:35;;;;;;;;;;;18.20;65.80;;;;;;5054156;28;20381;-71
2022/04/12 09:43:05;;;;;;;;;;;18.20;65.50;;;;;;5053121;28;19912;-71
2022/04/12 09:45:31;;;;;;;;;;;18.30;65.30;;;;;;5054181;28;19909;-70
2022/04/12 09:47:57;;;;;;;;;;;18.40;65.00;;;;;;5053931;28;20005;-70
2022/04/12 09:50:24;;;;;;;;;;;18.50;64.60;;;;;;5053803;28;19912;-70
2022/04/12 09:52:53;;;;;;;;;;;18.60;64.50;;;;;;5054057;28;19909;-70
2022/04/12 09:55:31;;;;;;;;;;;18.60;62.90;;;;;;5053882;28;19915;-71
2022/04/12 09:57:57;;;;;;;;;;;18.50;62.30;;;;;;5053955;28;19931;-71
2022/04/12 10:00:22;;;;;;;;;;;18.60;62.50;;;;;;5054362;28;19913;-71
2022/04/12 10:02:48;;;;;;;;;;;18.60;62.40;;;;;;5054062;28;19948;-71
2022/04/12 10:05:13;;;;;;;;;;;18.70;62.80;;;;;;5053941;28;19916;-68
2022/04/12 10:07:39;;;;;;;;;;;18.80;62.00;;;;;;5053275;28;19999;-72
2022/04/12 10:10:05;;;;;;;;;;;18.90;61.60;;;;;;5033032;28;19909;-71
2022/04/12 10:12:31;;;;;;;;;;;18.90;62.00;;;;;;5048480;28;19910;-69
2022/04/12 10:14:56;;;;;;;;;;;19.00;62.20;;;;;;5045461;28;19913;-69
2022/04/12 10:17:22;;;;;;;;;;;19.00;62.40;;;;;;5050582;28;19909;-69
2022/04/12 10:19:48;;;;;;;;;;;19.10;62.30;;;;;;5052114;28;19960;-71
2022/04/12 10:22:13;;;;;;;;;;;19.10;62.00;;;;;;5052515;28;19919;-69
2022/04/12 10:24:39;;;;;;;;;;;19.10;62.40;;;;;;5052192;28;19967;-70
2022/04/12 10:27:05;;;;;;;;;;;19.10;62.00;;;;;;5052446;28;19951;-70
2022/04/12 10:29:31;;;;;;;;;;;19.20;62.10;;;;;;5051975;28;19960;-69
2022/04/12 10:32:00;;;;;;;;;;;19.10;61.70;;;;;;5033808;28;19909;-70
2022/04/12 10:34:26;;;;;;;;;;;19.10;61.60;;;;;;5069203;28;19912;-69
2022/04/12 10:36:54;;;;;;;;;;;19.20;61.20;;;;;;5053138;28;19916;-69
2022/04/12 10:39:30;;;;;;;;;;;19.30;61.10;;;;;;5051078;28;20476;-70
2022/04/12 10:41:56;;;;;;;;;;;19.40;60.90;;;;;;5052830;28;19938;-69
2022/04/12 10:44:22;;;;;;;;;;;19.40;60.80;;;;;;5051499;28;19913;-69
2022/04/12 10:46:50;;;;;;;;;;;19.40;60.80;;;;;;5053167;28;19963;-69
2022/04/12 10:49:21;;;;;;;;;;;19.50;60.70;;;;;;5052807;28;19909;-70
2022/04/12 10:51:59;;;;;;;;;;;19.70;60.70;;;;;;5053291;28;19967;-70
2022/04/12 10:54:31;;;;;;;;;;;19.60;60.60;;;;;;5053082;28;19908;-69
2022/04/12 10:57:16;;;;;;;;;;;19.70;60.80;;;;;;5052721;28;19916;-71
2022/04/12 10:59:45;;;;;;;;;;;19.70;60.90;;;;;;5054516;28;19909;-70
2022/04/12 11:02:11;;;;;;;;;;;19.90;60.60;;;;;;5052776;28;19916;-69
2022/04/12 11:04:36;;;;;;;;;;;20.00;59.90;;;;;;5052342;28;19913;-68
2022/04/12 11:07:05;;;;;;;;;;;19.90;59.60;;;;;;5052532;28;19912;-70
2022/04/12 11:09:31;;;;;;;;;;;19.90;59.80;;;;;;5052072;28;19912;-69
2022/04/12 11:12:01;;;;;;;;;;;20.00;60.20;;;;;;5052621;28;19954;-70
2022/04/12 11:14:27;;;;;;;;;;;20.10;60.20;;;;;;5052747;28;19931;-69
2022/04/12 11:16:58;;;;;;;;;;;20.10;59.50;;;;;;5052481;28;19912;-70
2022/04/12 11:19:24;;;;;;;;;;;20.10;60.10;;;;;;5052030;28;20342;-69
2022/04/12 11:21:56;;;;;;;;;;;20.20;60.20;;;;;;5051973;28;19944;-69
2022/04/12 11:24:22;;;;;;;;;;;20.30;60.30;;;;;;5052505;28;19909;-69
2022/04/12 11:27:04;;;;;;;;;;;20.30;59.60;;;;;;5052307;28;19909;-70
2022/04/12 11:29:30;;;;;;;;;;;20.30;58.80;;;;;;5051925;28;19909;-68
2022/04/12 11:31:56;;;;;;;;;;;20.20;58.10;;;;;;5051948;28;20439;-69
2022/04/12 11:34:22;;;;;;;;;;;20.20;58.10;;;;;;5052911;28;19913;-69
2022/04/12 11:36:55;;;;;;;;;;;20.20;58.10;;;;;;5052089;28;20284;-70
2022/04/12 11:39:22;;;;;;;;;;;20.10;58.10;;;;;;5051514;28;19919;-69
2022/04/12 11:41:47;;;;;;;;;;;20.20;58.50;;;;;;5051754;28;19920;-70
2022/04/12 11:44:13;;;;;;;;;;;20.20;58.10;;;;;;5051795;28;19913;-70
2022/04/12 11:46:38;;;;;;;;;;;20.10;58.00;;;;;;5051517;28;19909;-69
2022/04/12 11:49:07;;;;;;;;;;;20.10;57.50;;;;;;5051685;28;20392;-70
2022/04/12 11:51:47;;;;;;;;;;;20.00;57.90;;;;;;5051725;28;19913;-69
2022/04/12 11:54:26;;;;;;;;;;;20.20;58.20;;;;;;5051949;28;19920;-69
2022/04/12 11:56:52;;;;;;;;;;;20.20;57.70;;;;;;5051848;28;19916;-69
2022/04/12 11:59:17;;;;;;;;;;;20.10;56.90;;;;;;5051115;28;20024;-69
2022/04/12 12:01:43;;;;;;;;;;;20.20;57.30;;;;;;5051724;28;19976;-69
2022/04/12 12:04:09;;;;;;;;;;;20.20;57.40;;;;;;5051692;28;19959;-69
2022/04/12 12:06:51;;;;;;;;;;;20.30;57.50;;;;;;5051458;28;19908;-69
2022/04/12 12:09:16;;;;;;;;;;;20.30;57.70;;;;;;5051315;28;19909;-69
2022/04/12 12:11:42;;;;;;;;;;;20.40;57.90;;;;;;5051845;28;20003;-70
2022/04/12 12:14:10;;;;;;;;;;;20.50;58.00;;;;;;5051543;28;19948;-70
2022/04/12 12:16:36;;;;;;;;;;;20.70;57.40;;;;;;5051552;28;19908;-69
2022/04/12 12:19:01;;;;;;;;;;;20.80;57.00;;;;;;5051415;28;20292;-70
2022/04/12 12:21:30;;;;;;;;;;;20.90;56.20;;;;;;5051406;28;20397;-70
2022/04/12 12:23:55;;;;;;;;;;;21.00;56.10;;;;;;5051759;28;19912;-69
2022/04/12 12:26:28;;;;;;;;;;;21.00;55.80;;;;;;5050413;28;19909;-70
2022/04/12 12:28:56;;;;;;;;;;;21.00;56.00;;;;;;5050287;28;19916;-70
2022/04/12 12:31:21;;;;;;;;;;;21.20;56.20;;;;;;5051071;28;19909;-70
2022/04/12 12:33:47;;;;;;;;;;;21.30;56.20;;;;;;5051227;28;20477;-70
2022/04/12 12:36:23;;;;;;;;;;;21.40;55.50;;;;;;5051226;28;19912;-70
2022/04/12 12:38:49;;;;;;;;;;;21.50;55.30;;;;;;5051092;28;19909;-70
2022/04/12 12:41:25;;;;;;;;;;;21.60;55.20;;;;;;5051129;28;19909;-70
2022/04/12 12:43:55;;;;;;;;;;;21.70;55.10;;;;;;5051276;28;20289;-70
2022/04/12 12:46:23;;;;;;;;;;;21.60;54.60;;;;;;5051654;28;19952;-70
2022/04/12 12:49:04;;;;;;;;;;;21.60;54.60;;;;;;5051145;28;19951;-70
2022/04/12 12:51:29;;;;;;;;;;;21.70;54.50;;;;;;5050820;28;19954;-70
2022/04/12 12:54:01;;;;;;;;;;;21.60;54.70;;;;;;5051285;28;19909;-70
2022/04/12 12:56:31;;;;;;;;;;;21.50;54.50;;;;;;5051104;28;20000;-69
2022/04/12 12:59:13;;;;;;;;;;;21.60;54.50;;;;;;5051095;28;19916;-70
2022/04/12 13:01:46;;;;;;;;;;;21.80;54.50;;;;;;5051097;28;20305;-70
2022/04/12 13:04:41;;;;;;;;;;;21.90;54.60;;;;;;5050741;28;19912;-70
2022/04/12 13:07:07;;;;;;;;;;;21.90;54.20;;;;;;5046272;28;20000;-69
2022/04/12 13:09:33;;;;;;;;;;;21.90;54.50;;;;;;5050745;28;20007;-70
2022/04/12 13:11:59;;;;;;;;;;;21.90;54.60;;;;;;5051180;28;19909;-70
2022/04/12 13:14:25;;;;;;;;;;;22.10;54.60;;;;;;5050955;28;19912;-70
2022/04/12 13:16:50;;;;;;;;;;;22.20;54.70;;;;;;5051163;28;20068;-71
2022/04/12 13:19:29;;;;;;;;;;;22.30;54.50;;;;;;5052059;28;19917;-71
2022/04/12 13:21:55;;;;;;;;;;;22.50;54.90;;;;;;5054884;28;19908;-71
2022/04/12 13:24:20;;;;;;;;;;;22.50;54.00;;;;;;5054593;28;19913;-71
2022/04/12 13:26:46;;;;;;;;;;;22.50;54.50;;;;;;5054806;28;20274;-71
2022/04/12 13:29:11;;;;;;;;;;;22.50;54.50;;;;;;5053985;28;19913;-70
2022/04/12 13:31:37;;;;;;;;;;;22.40;54.00;;;;;;5054308;28;19939;-71
2022/04/12 13:34:02;;;;;;;;;;;22.50;54.00;;;;;;5054444;28;20362;-70
2022/04/12 13:36:27;;;;;;;;;;;22.60;54.00;;;;;;5054414;28;20278;-70
2022/04/12 13:38:53;;;;;;;;;;;22.40;53.80;;;;;;5054266;28;20360;-68
2022/04/12 13:41:18;;;;;;;;;;;22.30;53.90;;;;;;5053930;28;19915;-71
2022/04/12 13:43:44;;;;;;;;;;;22.40;54.30;;;;;;5054217;28;19913;-70
2022/04/12 13:46:09;;;;;;;;;;;22.50;54.50;;;;;;5054005;28;19909;-70
2022/04/12 13:48:36;;;;;;;;;;;22.50;54.20;;;;;;5053961;28;19909;-70
2022/04/12 13:51:02;;;;;;;;;;;22.60;54.40;;;;;;5053901;28;19908;-70
2022/04/12 13:53:28;;;;;;;;;;;22.80;53.60;;;;;;5053741;28;19954;-70
2022/04/12 13:55:53;;;;;;;;;;;22.80;53.10;;;;;;5054407;28;20390;-70
2022/04/12 13:58:18;;;;;;;;;;;22.80;52.70;;;;;;5054021;28;19916;-69
2022/04/12 14:00:44;;;;;;;;;;;22.60;52.90;;;;;;5071717;22;19935;-66
2022/04/12 14:03:11;;;;;;;;;;;22.70;52.40;;;;;;5062273;28;20004;-67
2022/04/12 14:05:38;;;;;;;;;;;22.70;52.80;;;;;;5053950;28;19923;-67
2022/04/12 14:08:05;;;;;;;;;;;22.90;52.90;;;;;;5053728;28;19909;-66
2022/04/12 14:10:30;;;;;;;;;;;23.10;52.90;;;;;;5054005;28;19952;-69
2022/04/12 14:12:56;;;;;;;;;;;23.00;52.70;;;;;;5053942;28;20438;-66
2022/04/12 14:15:21;;;;;;;;;;;23.20;52.90;;;;;;5068890;28;19916;-66